sensor_id;sensor_type;location;lat;lon;timestamp;temperature;humidity
38866;DHT22;62686;48.984;8.394;2023-04-26T00:00:29;6.10;99.90
38866;DHT22;62686;48.984;8.394;2023-04-26T00:02:59;6.10;99.90
38866;DHT22;62686;48.984;8.394;2023-04-26T00:05:30;6.00;99.90
38866;DHT22;62686;48.984;8.394;2023-04-26T00:07:58;6.00;99.90
38866;DHT22;62686;48.984;8.394;2023-04-26T00:10:27;5.90;99.90
38866;DHT22;62686;48.984;8.394;2023-04-26T00:12:55;5.80;99.90
38866;DHT22;62686;48.984;8.394;2023-04-26T00:15:23;5.70;99.90
38866;DHT22;62686;48.984;8.394;2023-04-26T00:17:54;5.60;99.90
38866;DHT22;62686;48.984;8.394;2023-04-26T00:20:22;5.50;99.90
38866;DHT22;62686;48.984;8.394;2023-04-26T00:22:52;5.40;99.90
38866;DHT22;62686;48.984;8.394;2023-04-26T00:25:20;5.40;99.90
38866;DHT22;62686;48.984;8.394;2023-04-26T00:27:48;5.30;99.90
38866;DHT22;62686;48.984;8.394;2023-04-26T00:30:17;5.30;99.90
38866;DHT22;62686;48.984;8.394;2023-04-26T00:32:45;5.20;99.90
38866;DHT22;62686;48.984;8.394;2023-04-26T00:35:14;5.20;99.90
38866;DHT22;62686;48.984;8.394;2023-04-26T00:37:42;5.20;99.90
38866;DHT22;62686;48.984;8.394;2023-04-26T00:40:13;5.10;99.90
38866;DHT22;62686;48.984;8.394;2023-04-26T00:42:42;5.10;99.90
38866;DHT22;62686;48.984;8.394;2023-04-26T00:45:10;5.00;99.90
38866;DHT22;62686;48.984;8.394;2023-04-26T00:47:39;5.00;99.90
38866;DHT22;62686;48.984;8.394;2023-04-26T00:50:10;4.90;99.90
38866;DHT22;62686;48.984;8.394;2023-04-26T00:52:38;4.90;99.90
38866;DHT22;62686;48.984;8.394;2023-04-26T00:55:08;4.90;99.90
38866;DHT22;62686;48.984;8.394;2023-04-26T00:57:38;4.80;99.90
38866;DHT22;62686;48.984;8.394;2023-04-26T01:00:08;4.80;99.90
38866;DHT22;62686;48.984;8.394;2023-04-26T01:02:38;4.60;99.90
38866;DHT22;62686;48.984;8.394;2023-04-26T01:05:08;4.50;99.90
38866;DHT22;62686;48.984;8.394;2023-04-26T01:07:37;4.50;99.90
38866;DHT22;62686;48.984;8.394;2023-04-26T01:10:06;4.40;99.90
38866;DHT22;62686;48.984;8.394;2023-04-26T01:12:38;4.40;99.90
38866;DHT22;62686;48.984;8.394;2023-04-26T01:15:08;4.40;99.90
38866;DHT22;62686;48.984;8.394;2023-04-26T01:17:37;4.30;99.90
38866;DHT22;62686;48.984;8.394;2023-04-26T01:20:06;4.30;99.90
38866;DHT22;62686;48.984;8.394;2023-04-26T01:22:40;4.40;99.90
38866;DHT22;62686;48.984;8.394;2023-04-26T01:25:11;4.40;99.90
38866;DHT22;62686;48.984;8.394;2023-04-26T01:27:39;4.50;99.90
38866;DHT22;62686;48.984;8.394;2023-04-26T01:30:08;4.50;99.90
38866;DHT22;62686;48.984;8.394;2023-04-26T01:32:37;4.60;99.90
38866;DHT22;62686;48.984;8.394;2023-04-26T01:35:06;4.50;99.90
38866;DHT22;62686;48.984;8.394;2023-04-26T01:37:34;4.50;99.90
38866;DHT22;62686;48.984;8.394;2023-04-26T01:40:05;4.50;99.90
38866;DHT22;62686;48.984;8.394;2023-04-26T01:42:34;4.40;99.90
38866;DHT22;62686;48.984;8.394;2023-04-26T01:45:04;4.30;99.90
38866;DHT22;62686;48.984;8.394;2023-04-26T01:47:32;4.10;99.90
38866;DHT22;62686;48.984;8.394;2023-04-26T01:50:01;4.10;99.90
38866;DHT22;62686;48.984;8.394;2023-04-26T01:52:30;4.10;99.90
38866;DHT22;62686;48.984;8.394;2023-04-26T01:54:58;4.20;99.90
38866;DHT22;62686;48.984;8.394;2023-04-26T01:57:29;4.20;99.90
38866;DHT22;62686;48.984;8.394;2023-04-26T01:59:57;4.20;99.90
38866;DHT22;62686;48.984;8.394;2023-04-26T02:02:28;4.10;99.90
38866;DHT22;62686;48.984;8.394;2023-04-26T02:04:58;4.10;99.90
38866;DHT22;62686;48.984;8.394;2023-04-26T02:07:27;4.00;99.90
38866;DHT22;62686;48.984;8.394;2023-04-26T02:09:55;3.90;99.90
38866;DHT22;62686;48.984;8.394;2023-04-26T02:12:23;3.90;99.90
38866;DHT22;62686;48.984;8.394;2023-04-26T02:14:53;3.80;99.90
38866;DHT22;62686;48.984;8.394;2023-04-26T02:17:24;3.70;99.90
38866;DHT22;62686;48.984;8.394;2023-04-26T02:19:53;3.60;99.90
38866;DHT22;62686;48.984;8.394;2023-04-26T02:22:22;3.50;99.90
38866;DHT22;62686;48.984;8.394;2023-04-26T02:24:51;3.50;99.90
38866;DHT22;62686;48.984;8.394;2023-04-26T02:27:20;3.40;99.90
38866;DHT22;62686;48.984;8.394;2023-04-26T02:29:48;3.40;99.90
38866;DHT22;62686;48.984;8.394;2023-04-26T02:32:18;3.30;99.90
38866;DHT22;62686;48.984;8.394;2023-04-26T02:34:47;3.20;99.90
38866;DHT22;62686;48.984;8.394;2023-04-26T02:37:15;3.10;99.90
38866;DHT22;62686;48.984;8.394;2023-04-26T02:39:43;3.10;99.90
38866;DHT22;62686;48.984;8.394;2023-04-26T02:42:11;3.10;99.90
38866;DHT22;62686;48.984;8.394;2023-04-26T02:44:40;3.10;99.90
38866;DHT22;62686;48.984;8.394;2023-04-26T02:47:09;3.10;99.90
38866;DHT22;62686;48.984;8.394;2023-04-26T02:49:39;3.00;99.90
38866;DHT22;62686;48.984;8.394;2023-04-26T02:52:07;2.90;99.90
38866;DHT22;62686;48.984;8.394;2023-04-26T02:54:35;2.90;99.90
38866;DHT22;62686;48.984;8.394;2023-04-26T02:57:04;2.90;99.90
38866;DHT22;62686;48.984;8.394;2023-04-26T02:59:34;2.80;99.90
38866;DHT22;62686;48.984;8.394;2023-04-26T03:02:02;2.80;99.90
38866;DHT22;62686;48.984;8.394;2023-04-26T03:04:31;2.80;99.90
38866;DHT22;62686;48.984;8.394;2023-04-26T03:07:01;2.70;99.90
38866;DHT22;62686;48.984;8.394;2023-04-26T03:09:29;2.60;99.90
38866;DHT22;62686;48.984;8.394;2023-04-26T03:11:57;2.60;99.90
38866;DHT22;62686;48.984;8.394;2023-04-26T03:14:26;2.60;99.90
38866;DHT22;62686;48.984;8.394;2023-04-26T03:16:54;2.60;99.90
38866;DHT22;62686;48.984;8.394;2023-04-26T03:19:22;2.50;99.90
38866;DHT22;62686;48.984;8.394;2023-04-26T03:21:51;2.40;99.90
38866;DHT22;62686;48.984;8.394;2023-04-26T03:24:21;2.30;99.90
38866;DHT22;62686;48.984;8.394;2023-04-26T03:26:52;2.20;99.90
38866;DHT22;62686;48.984;8.394;2023-04-26T03:29:20;2.30;99.90
38866;DHT22;62686;48.984;8.394;2023-04-26T03:31:48;2.40;99.90
38866;DHT22;62686;48.984;8.394;2023-04-26T03:34:17;2.50;99.90
38866;DHT22;62686;48.984;8.394;2023-04-26T03:36:45;2.60;99.90
38866;DHT22;62686;48.984;8.394;2023-04-26T03:39:13;2.60;99.90
38866;DHT22;62686;48.984;8.394;2023-04-26T03:41:44;2.70;99.90
38866;DHT22;62686;48.984;8.394;2023-04-26T03:44:13;2.70;99.90
38866;DHT22;62686;48.984;8.394;2023-04-26T03:46:41;2.70;99.90
38866;DHT22;62686;48.984;8.394;2023-04-26T03:49:09;2.70;99.90
38866;DHT22;62686;48.984;8.394;2023-04-26T03:51:38;2.60;99.90
38866;DHT22;62686;48.984;8.394;2023-04-26T03:54:06;2.60;99.90
38866;DHT22;62686;48.984;8.394;2023-04-26T03:56:34;2.50;99.90
38866;DHT22;62686;48.984;8.394;2023-04-26T03:59:04;2.50;99.90
38866;DHT22;62686;48.984;8.394;2023-04-26T04:01:32;2.50;99.90
38866;DHT22;62686;48.984;8.394;2023-04-26T04:04:00;2.50;99.90
38866;DHT22;62686;48.984;8.394;2023-04-26T04:06:29;2.50;99.90
38866;DHT22;62686;48.984;8.394;2023-04-26T04:08:58;2.50;99.90
38866;DHT22;62686;48.984;8.394;2023-04-26T04:11:26;2.50;99.90
38866;DHT22;62686;48.984;8.394;2023-04-26T04:13:55;2.40;99.90
38866;DHT22;62686;48.984;8.394;2023-04-26T04:16:24;2.50;99.90
38866;DHT22;62686;48.984;8.394;2023-04-26T04:18:52;2.40;99.90
38866;DHT22;62686;48.984;8.394;2023-04-26T04:21:21;2.40;99.90
38866;DHT22;62686;48.984;8.394;2023-04-26T04:23:49;2.40;99.90
38866;DHT22;62686;48.984;8.394;2023-04-26T04:26:17;2.40;99.90
38866;DHT22;62686;48.984;8.394;2023-04-26T04:28:46;2.30;99.90
38866;DHT22;62686;48.984;8.394;2023-04-26T04:31:15;2.30;99.90
38866;DHT22;62686;48.984;8.394;2023-04-26T04:33:44;2.30;99.90
38866;DHT22;62686;48.984;8.394;2023-04-26T04:36:13;2.40;99.90
38866;DHT22;62686;48.984;8.394;2023-04-26T04:38:43;2.50;99.90
38866;DHT22;62686;48.984;8.394;2023-04-26T04:41:11;2.60;99.90
38866;DHT22;62686;48.984;8.394;2023-04-26T04:43:40;2.70;99.90
38866;DHT22;62686;48.984;8.394;2023-04-26T04:46:08;2.80;99.90
38866;DHT22;62686;48.984;8.394;2023-04-26T04:48:44;2.70;99.90
38866;DHT22;62686;48.984;8.394;2023-04-26T04:51:13;2.70;99.90
38866;DHT22;62686;48.984;8.394;2023-04-26T04:53:41;2.70;99.90
38866;DHT22;62686;48.984;8.394;2023-04-26T04:56:09;2.70;99.90
38866;DHT22;62686;48.984;8.394;2023-04-26T04:58:37;2.80;99.90
38866;DHT22;62686;48.984;8.394;2023-04-26T05:01:06;2.80;99.90
38866;DHT22;62686;48.984;8.394;2023-04-26T05:03:34;2.90;99.90
38866;DHT22;62686;48.984;8.394;2023-04-26T05:06:05;3.00;99.90
38866;DHT22;62686;48.984;8.394;2023-04-26T05:08:33;3.10;99.90
38866;DHT22;62686;48.984;8.394;2023-04-26T05:11:02;3.10;99.90
38866;DHT22;62686;48.984;8.394;2023-04-26T05:13:31;3.20;99.90
38866;DHT22;62686;48.984;8.394;2023-04-26T05:15:59;3.40;99.90
38866;DHT22;62686;48.984;8.394;2023-04-26T05:18:27;3.50;99.90
38866;DHT22;62686;48.984;8.394;2023-04-26T05:20:56;3.60;99.90
38866;DHT22;62686;48.984;8.394;2023-04-26T05:23:26;3.70;99.90
38866;DHT22;62686;48.984;8.394;2023-04-26T05:25:54;3.80;99.90
38866;DHT22;62686;48.984;8.394;2023-04-26T05:28:23;4.10;99.90
38866;DHT22;62686;48.984;8.394;2023-04-26T05:30:51;4.30;99.90
38866;DHT22;62686;48.984;8.394;2023-04-26T05:33:20;4.70;99.90
38866;DHT22;62686;48.984;8.394;2023-04-26T05:35:48;5.50;99.90
38866;DHT22;62686;48.984;8.394;2023-04-26T05:38:20;6.80;99.90
38866;DHT22;62686;48.984;8.394;2023-04-26T05:40:50;8.00;99.90
38866;DHT22;62686;48.984;8.394;2023-04-26T05:43:18;8.90;99.90
38866;DHT22;62686;48.984;8.394;2023-04-26T05:45:50;9.40;99.90
38866;DHT22;62686;48.984;8.394;2023-04-26T05:48:19;9.90;99.90
38866;DHT22;62686;48.984;8.394;2023-04-26T05:50:49;10.30;99.90
38866;DHT22;62686;48.984;8.394;2023-04-26T05:53:18;10.50;99.90
38866;DHT22;62686;48.984;8.394;2023-04-26T05:55:46;11.00;99.90
38866;DHT22;62686;48.984;8.394;2023-04-26T05:58:16;11.80;99.90
38866;DHT22;62686;48.984;8.394;2023-04-26T06:00:44;12.60;99.90
38866;DHT22;62686;48.984;8.394;2023-04-26T06:03:13;13.20;99.90
38866;DHT22;62686;48.984;8.394;2023-04-26T06:05:42;13.80;99.90
38866;DHT22;62686;48.984;8.394;2023-04-26T06:08:10;14.40;99.90
38866;DHT22;62686;48.984;8.394;2023-04-26T06:10:38;14.60;99.90
38866;DHT22;62686;48.984;8.394;2023-04-26T06:13:06;14.90;99.90
38866;DHT22;62686;48.984;8.394;2023-04-26T06:15:36;15.40;99.90
38866;DHT22;62686;48.984;8.394;2023-04-26T06:18:04;15.50;99.90
38866;DHT22;62686;48.984;8.394;2023-04-26T06:20:33;15.80;99.90
38866;DHT22;62686;48.984;8.394;2023-04-26T06:23:02;16.40;99.90
38866;DHT22;62686;48.984;8.394;2023-04-26T06:25:30;16.70;99.90
38866;DHT22;62686;48.984;8.394;2023-04-26T06:27:59;16.60;99.90
38866;DHT22;62686;48.984;8.394;2023-04-26T06:30:28;16.40;99.90
38866;DHT22;62686;48.984;8.394;2023-04-26T06:32:58;16.50;99.90
38866;DHT22;62686;48.984;8.394;2023-04-26T06:35:27;16.60;99.90
38866;DHT22;62686;48.984;8.394;2023-04-26T06:37:55;16.60;99.90
38866;DHT22;62686;48.984;8.394;2023-04-26T06:40:23;16.30;99.90
38866;DHT22;62686;48.984;8.394;2023-04-26T06:42:51;16.00;99.90
38866;DHT22;62686;48.984;8.394;2023-04-26T06:45:20;16.10;99.90
38866;DHT22;62686;48.984;8.394;2023-04-26T06:47:50;16.40;99.90
38866;DHT22;62686;48.984;8.394;2023-04-26T06:50:20;16.40;99.90
38866;DHT22;62686;48.984;8.394;2023-04-26T06:52:48;16.80;99.90
38866;DHT22;62686;48.984;8.394;2023-04-26T06:55:17;17.20;99.90
38866;DHT22;62686;48.984;8.394;2023-04-26T06:57:46;17.30;99.90
38866;DHT22;62686;48.984;8.394;2023-04-26T07:00:15;17.80;99.90
38866;DHT22;62686;48.984;8.394;2023-04-26T07:02:44;17.90;99.90
38866;DHT22;62686;48.984;8.394;2023-04-26T07:05:12;18.00;99.90
38866;DHT22;62686;48.984;8.394;2023-04-26T07:07:42;17.70;99.90
38866;DHT22;62686;48.984;8.394;2023-04-26T07:10:11;17.50;99.90
38866;DHT22;62686;48.984;8.394;2023-04-26T07:12:40;17.50;99.90
38866;DHT22;62686;48.984;8.394;2023-04-26T07:15:10;18.00;99.90
38866;DHT22;62686;48.984;8.394;2023-04-26T07:17:38;18.50;99.90
38866;DHT22;62686;48.984;8.394;2023-04-26T07:20:08;19.00;99.90
38866;DHT22;62686;48.984;8.394;2023-04-26T07:22:37;19.60;99.90
38866;DHT22;62686;48.984;8.394;2023-04-26T07:25:07;20.20;99.90
38866;DHT22;62686;48.984;8.394;2023-04-26T07:27:35;20.30;99.40
38866;DHT22;62686;48.984;8.394;2023-04-26T07:30:05;20.40;99.90
38866;DHT22;62686;48.984;8.394;2023-04-26T07:32:33;20.40;98.50
38866;DHT22;62686;48.984;8.394;2023-04-26T07:35:02;20.20;98.00
38866;DHT22;62686;48.984;8.394;2023-04-26T07:37:31;20.40;98.20
38866;DHT22;62686;48.984;8.394;2023-04-26T07:39:59;19.90;96.90
38866;DHT22;62686;48.984;8.394;2023-04-26T07:42:29;20.10;99.90
38866;DHT22;62686;48.984;8.394;2023-04-26T07:44:57;21.10;98.50
38866;DHT22;62686;48.984;8.394;2023-04-26T07:47:25;21.50;96.20
38866;DHT22;62686;48.984;8.394;2023-04-26T07:49:53;21.50;96.30
38866;DHT22;62686;48.984;8.394;2023-04-26T07:52:22;20.90;94.70
38866;DHT22;62686;48.984;8.394;2023-04-26T07:54:50;21.00;95.40
38866;DHT22;62686;48.984;8.394;2023-04-26T07:57:18;21.10;97.60
38866;DHT22;62686;48.984;8.394;2023-04-26T07:59:48;21.30;96.30
38866;DHT22;62686;48.984;8.394;2023-04-26T08:02:16;20.40;96.00
38866;DHT22;62686;48.984;8.394;2023-04-26T08:04:48;21.10;95.80
38866;DHT22;62686;48.984;8.394;2023-04-26T08:07:18;21.60;94.80
38866;DHT22;62686;48.984;8.394;2023-04-26T08:09:46;22.30;94.30
38866;DHT22;62686;48.984;8.394;2023-04-26T08:12:15;22.80;93.10
38866;DHT22;62686;48.984;8.394;2023-04-26T08:14:43;22.40;93.70
38866;DHT22;62686;48.984;8.394;2023-04-26T08:17:13;22.10;91.80
38866;DHT22;62686;48.984;8.394;2023-04-26T08:19:41;21.80;91.30
38866;DHT22;62686;48.984;8.394;2023-04-26T08:22:10;22.40;93.90
38866;DHT22;62686;48.984;8.394;2023-04-26T08:24:38;23.00;92.70
38866;DHT22;62686;48.984;8.394;2023-04-26T08:27:07;23.70;92.50
38866;DHT22;62686;48.984;8.394;2023-04-26T08:29:35;24.10;87.50
38866;DHT22;62686;48.984;8.394;2023-04-26T08:32:04;23.70;79.40
38866;DHT22;62686;48.984;8.394;2023-04-26T08:34:34;24.30;75.50
38866;DHT22;62686;48.984;8.394;2023-04-26T08:37:02;24.60;84.30
38866;DHT22;62686;48.984;8.394;2023-04-26T08:39:32;24.40;79.20
38866;DHT22;62686;48.984;8.394;2023-04-26T08:42:13;23.90;72.40
38866;DHT22;62686;48.984;8.394;2023-04-26T08:44:43;23.40;72.50
38866;DHT22;62686;48.984;8.394;2023-04-26T08:47:15;23.10;78.50
38866;DHT22;62686;48.984;8.394;2023-04-26T08:49:47;23.00;77.60
38866;DHT22;62686;48.984;8.394;2023-04-26T08:52:20;22.60;74.10
38866;DHT22;62686;48.984;8.394;2023-04-26T08:54:50;21.80;78.10
38866;DHT22;62686;48.984;8.394;2023-04-26T08:57:18;21.60;75.90
38866;DHT22;62686;48.984;8.394;2023-04-26T08:59:49;21.70;74.50
38866;DHT22;62686;48.984;8.394;2023-04-26T09:02:18;21.30;76.00
38866;DHT22;62686;48.984;8.394;2023-04-26T09:04:50;20.50;78.40
38866;DHT22;62686;48.984;8.394;2023-04-26T09:07:30;21.00;76.00
38866;DHT22;62686;48.984;8.394;2023-04-26T09:09:59;20.60;74.90
38866;DHT22;62686;48.984;8.394;2023-04-26T09:12:28;20.30;77.60
38866;DHT22;62686;48.984;8.394;2023-04-26T09:14:56;20.50;78.00
38866;DHT22;62686;48.984;8.394;2023-04-26T09:17:25;21.20;78.50
38866;DHT22;62686;48.984;8.394;2023-04-26T09:19:56;21.40;79.50
38866;DHT22;62686;48.984;8.394;2023-04-26T09:22:29;21.60;79.00
38866;DHT22;62686;48.984;8.394;2023-04-26T09:24:58;21.20;72.80
38866;DHT22;62686;48.984;8.394;2023-04-26T09:27:33;21.20;79.20
38866;DHT22;62686;48.984;8.394;2023-04-26T09:30:08;20.70;77.90
38866;DHT22;62686;48.984;8.394;2023-04-26T09:32:48;20.50;79.60
38866;DHT22;62686;48.984;8.394;2023-04-26T09:35:29;19.70;82.30
38866;DHT22;62686;48.984;8.394;2023-04-26T09:37:59;20.80;82.30
38866;DHT22;62686;48.984;8.394;2023-04-26T09:40:36;21.70;78.60
38866;DHT22;62686;48.984;8.394;2023-04-26T09:43:05;21.40;79.30
38866;DHT22;62686;48.984;8.394;2023-04-26T09:45:43;22.10;75.70
38866;DHT22;62686;48.984;8.394;2023-04-26T09:48:12;22.80;72.70
38866;DHT22;62686;48.984;8.394;2023-04-26T09:50:44;22.60;68.50
38866;DHT22;62686;48.984;8.394;2023-04-26T09:53:27;22.90;75.50
38866;DHT22;62686;48.984;8.394;2023-04-26T09:55:56;22.20;73.40
38866;DHT22;62686;48.984;8.394;2023-04-26T09:58:24;21.40;77.60
38866;DHT22;62686;48.984;8.394;2023-04-26T10:00:53;20.30;77.20
38866;DHT22;62686;48.984;8.394;2023-04-26T10:03:22;19.50;74.50
38866;DHT22;62686;48.984;8.394;2023-04-26T10:05:52;19.70;77.10
38866;DHT22;62686;48.984;8.394;2023-04-26T10:08:21;19.20;75.20
38866;DHT22;62686;48.984;8.394;2023-04-26T10:10:49;18.60;78.80
38866;DHT22;62686;48.984;8.394;2023-04-26T10:13:20;18.50;80.40
38866;DHT22;62686;48.984;8.394;2023-04-26T10:15:49;18.10;82.00
38866;DHT22;62686;48.984;8.394;2023-04-26T10:18:17;17.00;77.30
38866;DHT22;62686;48.984;8.394;2023-04-26T10:20:49;17.10;80.00
38866;DHT22;62686;48.984;8.394;2023-04-26T10:23:21;17.70;82.60
38866;DHT22;62686;48.984;8.394;2023-04-26T10:25:51;17.60;78.50
38866;DHT22;62686;48.984;8.394;2023-04-26T10:28:53;17.50;80.50
38866;DHT22;62686;48.984;8.394;2023-04-26T10:32:06;17.70;82.90
38866;DHT22;62686;48.984;8.394;2023-04-26T10:34:36;18.30;83.00
38866;DHT22;62686;48.984;8.394;2023-04-26T10:37:09;18.90;82.90
38866;DHT22;62686;48.984;8.394;2023-04-26T10:39:39;18.80;83.40
38866;DHT22;62686;48.984;8.394;2023-04-26T10:42:19;19.00;74.60
38866;DHT22;62686;48.984;8.394;2023-04-26T10:44:51;19.40;77.70
38866;DHT22;62686;48.984;8.394;2023-04-26T10:47:30;19.90;76.60
38866;DHT22;62686;48.984;8.394;2023-04-26T10:50:03;19.50;73.10
38866;DHT22;62686;48.984;8.394;2023-04-26T10:52:32;19.30;78.60
38866;DHT22;62686;48.984;8.394;2023-04-26T10:55:02;17.90;74.60
38866;DHT22;62686;48.984;8.394;2023-04-26T10:57:51;18.10;82.50
38866;DHT22;62686;48.984;8.394;2023-04-26T11:00:28;18.20;81.20
38866;DHT22;62686;48.984;8.394;2023-04-26T11:03:04;19.00;81.00
38866;DHT22;62686;48.984;8.394;2023-04-26T11:05:51;18.30;75.80
38866;DHT22;62686;48.984;8.394;2023-04-26T11:08:25;19.00;78.00
38866;DHT22;62686;48.984;8.394;2023-04-26T11:11:04;19.70;74.80
38866;DHT22;62686;48.984;8.394;2023-04-26T11:13:36;20.00;76.10
38866;DHT22;62686;48.984;8.394;2023-04-26T11:16:05;19.70;78.50
38866;DHT22;62686;48.984;8.394;2023-04-26T11:18:36;18.80;75.90
38866;DHT22;62686;48.984;8.394;2023-04-26T11:21:05;18.40;75.60
38866;DHT22;62686;48.984;8.394;2023-04-26T11:23:33;18.50;80.40
38866;DHT22;62686;48.984;8.394;2023-04-26T11:26:05;19.30;76.90
38866;DHT22;62686;48.984;8.394;2023-04-26T11:28:35;20.40;75.10
38866;DHT22;62686;48.984;8.394;2023-04-26T11:31:05;19.80;71.80
38866;DHT22;62686;48.984;8.394;2023-04-26T11:33:33;21.50;72.80
38866;DHT22;62686;48.984;8.394;2023-04-26T11:36:02;22.20;68.50
38866;DHT22;62686;48.984;8.394;2023-04-26T11:38:30;22.60;76.20
38866;DHT22;62686;48.984;8.394;2023-04-26T11:40:59;22.90;67.10
38866;DHT22;62686;48.984;8.394;2023-04-26T11:43:36;23.40;70.80
38866;DHT22;62686;48.984;8.394;2023-04-26T11:46:08;23.00;68.30
38866;DHT22;62686;48.984;8.394;2023-04-26T11:48:37;21.90;70.80
38866;DHT22;62686;48.984;8.394;2023-04-26T11:51:06;22.30;72.80
38866;DHT22;62686;48.984;8.394;2023-04-26T11:53:37;21.70;71.10
38866;DHT22;62686;48.984;8.394;2023-04-26T11:56:13;20.60;69.30
38866;DHT22;62686;48.984;8.394;2023-04-26T11:58:48;19.70;70.60
38866;DHT22;62686;48.984;8.394;2023-04-26T12:01:20;19.20;71.70
38866;DHT22;62686;48.984;8.394;2023-04-26T12:03:49;18.60;72.60
38866;DHT22;62686;48.984;8.394;2023-04-26T12:06:18;17.80;73.30
38866;DHT22;62686;48.984;8.394;2023-04-26T12:08:49;17.70;74.90
38866;DHT22;62686;48.984;8.394;2023-04-26T12:11:18;19.00;75.00
38866;DHT22;62686;48.984;8.394;2023-04-26T12:13:48;19.40;71.40
38866;DHT22;62686;48.984;8.394;2023-04-26T12:16:16;19.80;75.20
38866;DHT22;62686;48.984;8.394;2023-04-26T12:18:51;20.60;69.90
38866;DHT22;62686;48.984;8.394;2023-04-26T12:21:19;21.00;69.20
38866;DHT22;62686;48.984;8.394;2023-04-26T12:23:48;20.90;71.00
38866;DHT22;62686;48.984;8.394;2023-04-26T12:26:16;20.90;73.00
38866;DHT22;62686;48.984;8.394;2023-04-26T12:28:47;21.00;69.60
38866;DHT22;62686;48.984;8.394;2023-04-26T12:31:15;21.10;69.10
38866;DHT22;62686;48.984;8.394;2023-04-26T12:33:44;20.50;68.30
38866;DHT22;62686;48.984;8.394;2023-04-26T12:36:12;20.20;70.00
38866;DHT22;62686;48.984;8.394;2023-04-26T12:38:40;19.60;70.30
38866;DHT22;62686;48.984;8.394;2023-04-26T12:41:09;19.50;77.00
38866;DHT22;62686;48.984;8.394;2023-04-26T12:43:37;19.90;71.30
38866;DHT22;62686;48.984;8.394;2023-04-26T12:46:06;20.80;71.70
38866;DHT22;62686;48.984;8.394;2023-04-26T12:48:37;20.10;68.70
38866;DHT22;62686;48.984;8.394;2023-04-26T12:51:06;21.40;72.80
38866;DHT22;62686;48.984;8.394;2023-04-26T12:53:35;22.10;67.60
38866;DHT22;62686;48.984;8.394;2023-04-26T12:56:04;22.90;68.10
38866;DHT22;62686;48.984;8.394;2023-04-26T12:58:32;22.10;64.20
38866;DHT22;62686;48.984;8.394;2023-04-26T13:01:00;22.10;69.50
38866;DHT22;62686;48.984;8.394;2023-04-26T13:03:30;21.20;67.70
38866;DHT22;62686;48.984;8.394;2023-04-26T13:05:58;21.10;67.40
38866;DHT22;62686;48.984;8.394;2023-04-26T13:08:27;21.90;70.80
38866;DHT22;62686;48.984;8.394;2023-04-26T13:10:56;22.60;67.60
38866;DHT22;62686;48.984;8.394;2023-04-26T13:13:25;23.50;62.10
38866;DHT22;62686;48.984;8.394;2023-04-26T13:15:58;21.90;64.50
38866;DHT22;62686;48.984;8.394;2023-04-26T13:18:26;21.10;69.60
38866;DHT22;62686;48.984;8.394;2023-04-26T13:20:56;22.00;68.50
38866;DHT22;62686;48.984;8.394;2023-04-26T13:23:24;23.00;70.20
38866;DHT22;62686;48.984;8.394;2023-04-26T13:25:53;23.70;61.50
38866;DHT22;62686;48.984;8.394;2023-04-26T13:28:21;24.10;62.60
38866;DHT22;62686;48.984;8.394;2023-04-26T13:30:49;24.50;69.70
38866;DHT22;62686;48.984;8.394;2023-04-26T13:33:18;23.30;62.10
38866;DHT22;62686;48.984;8.394;2023-04-26T13:35:47;24.00;65.70
38866;DHT22;62686;48.984;8.394;2023-04-26T13:38:16;24.10;60.10
38866;DHT22;62686;48.984;8.394;2023-04-26T13:40:45;23.20;60.60
38866;DHT22;62686;48.984;8.394;2023-04-26T13:43:13;23.10;66.00
38866;DHT22;62686;48.984;8.394;2023-04-26T13:45:41;24.80;66.80
38866;DHT22;62686;48.984;8.394;2023-04-26T13:48:09;24.20;59.30
38866;DHT22;62686;48.984;8.394;2023-04-26T13:50:38;22.50;64.70
38866;DHT22;62686;48.984;8.394;2023-04-26T13:53:06;21.30;66.50
38866;DHT22;62686;48.984;8.394;2023-04-26T13:55:36;21.70;66.80
38866;DHT22;62686;48.984;8.394;2023-04-26T13:58:04;23.10;67.30
38866;DHT22;62686;48.984;8.394;2023-04-26T14:00:33;23.50;63.80
38866;DHT22;62686;48.984;8.394;2023-04-26T14:03:02;24.00;61.70
38866;DHT22;62686;48.984;8.394;2023-04-26T14:05:31;22.80;61.90
38866;DHT22;62686;48.984;8.394;2023-04-26T14:07:59;21.40;59.30
38866;DHT22;62686;48.984;8.394;2023-04-26T14:10:28;19.40;62.50
38866;DHT22;62686;48.984;8.394;2023-04-26T14:12:58;18.50;65.90
38866;DHT22;62686;48.984;8.394;2023-04-26T14:15:26;17.90;72.10
38866;DHT22;62686;48.984;8.394;2023-04-26T14:17:55;17.40;74.30
38866;DHT22;62686;48.984;8.394;2023-04-26T14:20:25;16.70;73.90
38866;DHT22;62686;48.984;8.394;2023-04-26T14:23:00;17.20;78.10
38866;DHT22;62686;48.984;8.394;2023-04-26T14:25:34;17.90;71.60
38866;DHT22;62686;48.984;8.394;2023-04-26T14:28:08;18.10;73.50
38866;DHT22;62686;48.984;8.394;2023-04-26T14:30:40;18.70;73.50
38866;DHT22;62686;48.984;8.394;2023-04-26T14:33:08;19.00;73.40
38866;DHT22;62686;48.984;8.394;2023-04-26T14:35:38;19.40;74.10
38866;DHT22;62686;48.984;8.394;2023-04-26T14:38:07;20.70;69.50
38866;DHT22;62686;48.984;8.394;2023-04-26T14:40:35;20.80;67.00
38866;DHT22;62686;48.984;8.394;2023-04-26T14:43:04;21.50;68.60
38866;DHT22;62686;48.984;8.394;2023-04-26T14:45:34;22.80;68.40
38866;DHT22;62686;48.984;8.394;2023-04-26T14:48:09;23.50;62.70
38866;DHT22;62686;48.984;8.394;2023-04-26T14:50:38;23.40;62.90
38866;DHT22;62686;48.984;8.394;2023-04-26T14:53:06;23.70;60.90
38866;DHT22;62686;48.984;8.394;2023-04-26T14:55:35;24.40;60.10
38866;DHT22;62686;48.984;8.394;2023-04-26T14:58:10;22.80;60.70
38866;DHT22;62686;48.984;8.394;2023-04-26T15:00:45;20.80;62.60
38866;DHT22;62686;48.984;8.394;2023-04-26T15:03:13;21.50;68.60
38866;DHT22;62686;48.984;8.394;2023-04-26T15:05:42;21.60;62.00
38866;DHT22;62686;48.984;8.394;2023-04-26T15:08:11;21.10;65.00
38866;DHT22;62686;48.984;8.394;2023-04-26T15:10:39;20.40;67.30
38866;DHT22;62686;48.984;8.394;2023-04-26T15:13:08;19.30;68.90
38866;DHT22;62686;48.984;8.394;2023-04-26T15:15:36;18.50;74.40
38866;DHT22;62686;48.984;8.394;2023-04-26T15:18:06;17.70;72.90
38866;DHT22;62686;48.984;8.394;2023-04-26T15:20:38;17.20;70.60
38866;DHT22;62686;48.984;8.394;2023-04-26T15:23:06;16.90;71.40
38866;DHT22;62686;48.984;8.394;2023-04-26T15:25:34;16.90;74.20
38866;DHT22;62686;48.984;8.394;2023-04-26T15:28:03;17.00;72.80
38866;DHT22;62686;48.984;8.394;2023-04-26T15:30:31;16.90;76.60
38866;DHT22;62686;48.984;8.394;2023-04-26T15:32:59;16.60;77.00
38866;DHT22;62686;48.984;8.394;2023-04-26T15:35:29;16.00;77.20
38866;DHT22;62686;48.984;8.394;2023-04-26T15:37:58;15.80;76.90
38866;DHT22;62686;48.984;8.394;2023-04-26T15:40:26;15.70;79.00
38866;DHT22;62686;48.984;8.394;2023-04-26T15:42:54;15.90;79.60
38866;DHT22;62686;48.984;8.394;2023-04-26T15:45:23;16.30;81.00
38866;DHT22;62686;48.984;8.394;2023-04-26T15:47:51;16.50;75.70
38866;DHT22;62686;48.984;8.394;2023-04-26T15:50:21;16.70;76.50
38866;DHT22;62686;48.984;8.394;2023-04-26T15:52:50;16.70;76.90